createdAt,value
2023-01-01T00:00:33.207Z,80
2023-01-01T00:01:43.277Z,80
2023-01-01T00:02:51.582Z,80
2023-01-01T00:13:53.053Z,80
2023-01-01T00:15:00.241Z,81
2023-01-01T00:16:07.744Z,80
2023-01-01T00:17:14.701Z,80
2023-01-01T00:18:22.528Z,80
2023-01-01T01:52:15.286Z,80
2023-01-01T01:53:25.139Z,71
2023-01-01T01:54:36.725Z,71
2023-01-01T01:55:44.809Z,71
2023-01-01T01:56:55.065Z,71
2023-01-01T01:59:33.616Z,71
2023-01-01T02:00:41.953Z,71
2023-01-01T02:01:49.061Z,72
2023-01-01T02:02:56.774Z,72
2023-01-01T02:04:04.288Z,72
2023-01-01T07:27:39.769Z,75
2023-01-01T07:28:48.484Z,75
2023-01-01T07:29:55.447Z,75
2023-01-01T07:31:03.249Z,75
2023-01-01T07:32:10.115Z,75
2023-01-01T07:33:40.367Z,75
2023-01-01T07:34:50.755Z,75
2023-01-01T07:35:56.748Z,74
2023-01-01T07:37:05.516Z,75
2023-01-01T07:38:13.997Z,75
2023-01-01T07:39:21.312Z,75
2023-01-01T07:40:30.474Z,75
2023-01-01T07:41:39.173Z,75
2023-01-01T07:42:46.312Z,75
2023-01-01T07:43:54.832Z,75
2023-01-01T07:45:02.967Z,75
2023-01-01T07:46:10.775Z,75
2023-01-01T07:47:18.613Z,75
2023-01-01T07:48:25.540Z,74
2023-01-01T07:49:52.428Z,74
2023-01-01T07:51:00.559Z,74
2023-01-01T07:52:08.860Z,74
2023-01-01T07:53:17.225Z,74
2023-01-01T07:54:29.085Z,74
2023-01-01T07:55:39.911Z,74
2023-01-01T07:56:47.863Z,74
2023-01-01T07:57:57.580Z,74
2023-01-01T07:59:05.557Z,74
2023-01-01T08:00:13.598Z,74
2023-01-01T08:01:22.136Z,73
2023-01-01T08:02:30.437Z,73
2023-01-01T08:03:37.889Z,74
2023-01-01T08:04:45.643Z,73
2023-01-01T08:05:52.947Z,73
2023-01-01T08:07:01.563Z,73
2023-01-01T08:08:11.211Z,73
2023-01-01T08:09:18.496Z,73
2023-01-01T08:10:26.646Z,73
2023-01-01T08:11:33.745Z,73
2023-01-01T08:12:41.139Z,72
2023-01-01T08:13:50.706Z,72
2023-01-01T08:14:57.635Z,73
2023-01-01T08:16:06.885Z,73
2023-01-01T08:17:14.678Z,73
2023-01-01T08:18:21.523Z,73
2023-01-01T08:19:29.716Z,72
2023-01-01T08:20:37.029Z,72
2023-01-01T08:21:45.571Z,73
2023-01-01T08:22:53.324Z,73
2023-01-01T08:24:01.103Z,73
2023-01-01T08:25:08.387Z,73
2023-01-01T08:26:16.470Z,72
2023-01-01T08:27:24.832Z,73
2023-01-01T08:28:33.576Z,72
2023-01-01T08:29:41.718Z,73
2023-01-01T08:30:49.127Z,73
2023-01-01T08:31:57.581Z,73
2023-01-01T08:33:07.016Z,73
2023-01-01T08:34:14.048Z,72
2023-01-01T08:35:21.552Z,73
2023-01-01T08:36:28.899Z,73
2023-01-01T08:37:36.087Z,73
2023-01-01T08:38:43.191Z,73
2023-01-01T08:39:50.249Z,73
2023-01-01T08:40:58.206Z,73
2023-01-01T08:42:11.953Z,73
2023-01-01T08:43:15.565Z,73
2023-01-01T08:44:22.896Z,73
2023-01-01T08:45:30.573Z,73
2023-01-01T08:46:38.585Z,72
2023-01-01T08:47:46.587Z,72
2023-01-01T08:48:53.747Z,73
2023-01-01T08:50:02.595Z,73
2023-01-01T08:51:10.219Z,73
2023-01-01T08:52:17.543Z,72
2023-01-01T08:53:26.202Z,73
2023-01-01T08:54:34.174Z,72
2023-01-01T08:55:42.611Z,72
2023-01-01T08:56:50.589Z,72
2023-01-01T08:57:57.739Z,72
2023-01-01T08:59:05.220Z,72
2023-01-01T09:00:13.780Z,72
2023-01-01T09:01:22.261Z,72
2023-01-01T09:02:30.123Z,71
2023-01-01T09:03:37.127Z,71
2023-01-01T09:04:45.001Z,71
2023-01-01T09:05:54.231Z,71
2023-01-01T09:07:01.426Z,71
2023-01-01T09:08:08.619Z,70
2023-01-01T09:09:18.682Z,70
2023-01-01T09:10:24.819Z,70
2023-01-01T09:11:31.823Z,70
2023-01-01T09:12:39.249Z,69
2023-01-01T09:13:46.682Z,69
2023-01-01T09:14:54.806Z,69
2023-01-01T09:16:03.970Z,69
2023-01-01T09:17:11.887Z,69
2023-01-01T09:18:19.863Z,69
2023-01-01T09:19:27.853Z,69
2023-01-01T09:20:37.043Z,69
2023-01-01T09:21:46.245Z,69
2023-01-01T09:22:58.624Z,69
2023-01-01T09:24:03.773Z,69
2023-01-01T09:25:12.482Z,69
2023-01-01T09:26:20.734Z,69
2023-01-01T09:27:28.120Z,69
2023-01-01T09:28:37.175Z,69
2023-01-01T09:29:44.293Z,69
2023-01-01T09:30:52.294Z,69
2023-01-01T09:32:01.650Z,69
2023-01-01T09:33:10.852Z,69
2023-01-01T09:34:18.855Z,69
2023-01-01T09:35:26.151Z,68
2023-01-01T09:36:34.939Z,68
2023-01-01T09:37:42.253Z,68
2023-01-01T09:38:51.853Z,68
2023-01-01T09:40:02.282Z,68
2023-01-01T09:41:10.425Z,68
2023-01-01T09:42:21.800Z,68
2023-01-01T09:43:34.603Z,68
2023-01-01T09:44:45.374Z,67
2023-01-01T09:46:03.218Z,67
2023-01-01T09:47:11.771Z,67
2023-01-01T09:48:30.561Z,67
2023-01-01T09:49:37.958Z,66
2023-01-01T09:50:46.661Z,66
2023-01-01T09:51:57.802Z,66
2023-01-01T09:53:02.750Z,66
2023-01-01T09:54:16.306Z,66
2023-01-01T09:55:34.495Z,65
2023-01-01T09:56:52.715Z,64
2023-01-01T09:58:01.667Z,64
2023-01-01T09:59:08.902Z,64
2023-01-01T10:00:17.815Z,64
2023-01-01T10:01:25.729Z,64
2023-01-01T10:02:39.169Z,64
2023-01-01T10:03:52.439Z,64
2023-01-01T10:05:04.881Z,64
2023-01-01T10:06:24.306Z,64
2023-01-01T10:07:31.591Z,64
2023-01-01T10:08:40.177Z,64
2023-01-01T10:09:58.914Z,63
2023-01-01T10:11:17.136Z,63
2023-01-01T10:12:24.142Z,63
2023-01-01T10:13:35.807Z,63
2023-01-01T10:14:44.375Z,63
2023-01-01T10:15:55.580Z,63
2023-01-01T10:17:04.274Z,63
2023-01-01T10:18:20.021Z,63
2023-01-01T10:19:27.785Z,63
2023-01-01T10:20:43.251Z,63
2023-01-01T10:21:51.440Z,64
2023-01-01T10:22:58.845Z,63
2023-01-01T10:24:12.365Z,63
2023-01-01T10:25:30.366Z,63
2023-01-01T10:26:37.519Z,63
2023-01-01T10:27:45.970Z,63
2023-01-01T10:29:02.703Z,63
2023-01-01T10:30:14.311Z,63
2023-01-01T10:31:21.746Z,63
2023-01-01T10:32:49.098Z,63
2023-01-01T10:33:56.432Z,62
2023-01-01T10:35:04.283Z,62
2023-01-01T10:36:14.747Z,62
2023-01-01T10:37:21.896Z,62
2023-01-01T10:45:12.140Z,62
2023-01-01T10:46:19.330Z,62
2023-01-01T10:47:28.192Z,62
2023-01-01T10:48:35.138Z,62
2023-01-01T10:50:51.682Z,62
2023-01-01T10:52:07.195Z,61
2023-01-01T10:53:14.674Z,61
2023-01-01T10:54:31.424Z,61
2023-01-01T10:55:40.303Z,61
2023-01-01T11:03:07.285Z,61
2023-01-01T11:04:22.286Z,61
2023-01-01T11:05:29.405Z,61
2023-01-01T11:06:36.546Z,62
2023-01-01T11:07:44.866Z,61
2023-01-01T11:32:57.567Z,61
2023-01-01T11:34:05.760Z,60
2023-01-01T11:35:24.403Z,60
2023-01-01T11:36:32.728Z,60
2023-01-01T11:37:41.305Z,60
2023-01-01T13:58:52.268Z,66
2023-01-01T14:00:10.646Z,67
2023-01-01T14:01:23.326Z,66
2023-01-01T14:02:38.425Z,67
2023-01-01T14:06:41.270Z,67
2023-01-01T14:07:51.465Z,68
2023-01-01T14:08:56.153Z,68
2023-01-01T14:10:09.993Z,68
2023-01-01T14:11:24.081Z,68
2023-01-01T14:12:32.318Z,69
2023-01-01T14:13:40.522Z,69
2023-01-01T14:14:48.680Z,69
2023-01-01T14:15:56.512Z,69
2023-01-01T14:17:07.343Z,69
2023-01-01T14:18:14.476Z,69
2023-01-01T14:19:21.809Z,69
2023-01-01T14:20:29.707Z,69
2023-01-01T14:21:45.117Z,70
2023-01-01T14:22:53.198Z,70
2023-01-01T14:24:01.207Z,70
2023-01-01T14:25:09.564Z,70
2023-01-01T14:26:23.233Z,70
2023-01-01T14:27:31.405Z,70
2023-01-01T14:28:38.675Z,70
2023-01-01T14:29:45.661Z,70
2023-01-01T14:30:52.859Z,71
2023-01-01T14:32:00.213Z,71
2023-01-01T14:33:15.176Z,71
2023-01-01T14:34:25.733Z,71
2023-01-01T14:35:36.862Z,71
2023-01-01T14:36:44.876Z,71
2023-01-01T14:37:54.888Z,71
2023-01-01T14:39:02.758Z,71
2023-01-01T14:40:09.509Z,71
2023-01-01T14:41:23.085Z,72
2023-01-01T14:42:38.042Z,71
2023-01-01T14:43:45.872Z,71
2023-01-01T14:44:52.839Z,72
2023-01-01T14:46:02.539Z,72
2023-01-01T14:47:08.526Z,71
2023-01-01T14:48:26.303Z,71
2023-01-01T14:49:33.453Z,71
2023-01-01T14:50:40.561Z,72
2023-01-01T14:51:47.705Z,72
2023-01-01T14:52:54.792Z,72
2023-01-01T14:54:04.984Z,72
2023-01-01T14:55:12.691Z,72
2023-01-01T14:56:19.694Z,72
2023-01-01T14:57:30.871Z,72
2023-01-01T14:58:38.470Z,72
2023-01-01T14:59:46.866Z,72
2023-01-01T15:00:54.147Z,73
2023-01-01T15:02:01.637Z,73
2023-01-01T15:03:16.791Z,73
2023-01-01T15:04:24.165Z,73
2023-01-01T15:05:35.314Z,73
2023-01-01T15:06:40.232Z,73
2023-01-01T15:07:48.952Z,73
2023-01-01T15:08:58.760Z,73
2023-01-01T15:10:07.717Z,73
2023-01-01T15:11:15.561Z,73
2023-01-01T15:12:22.935Z,73
2023-01-01T15:13:31.088Z,73
2023-01-01T15:14:39.213Z,73
2023-01-01T15:15:46.362Z,73
2023-01-01T15:16:57.409Z,73
2023-01-01T15:18:13.543Z,74
2023-01-01T15:19:32.273Z,73
2023-01-01T15:20:40.564Z,74
2023-01-01T15:21:48.448Z,74
2023-01-01T15:22:56.938Z,74
2023-01-01T15:24:03.851Z,74
2023-01-01T15:25:14.047Z,74
2023-01-01T15:26:22.145Z,74
2023-01-01T15:27:33.427Z,75
2023-01-01T15:28:41.644Z,75
2023-01-01T15:29:48.592Z,75
2023-01-01T15:30:56.985Z,74
2023-01-01T15:32:05.854Z,75
2023-01-01T15:33:13.225Z,75
2023-01-01T15:34:24.147Z,75
2023-01-01T15:35:37.727Z,75
2023-01-01T15:36:44.837Z,75
2023-01-01T15:37:51.957Z,75
2023-01-01T15:39:00.990Z,76
2023-01-01T15:40:08.004Z,76
2023-01-01T15:41:18.096Z,75
2023-01-01T15:42:27.825Z,76
2023-01-01T15:43:40.140Z,76
2023-01-01T15:44:48.399Z,76
2023-01-01T15:45:56.642Z,77
2023-01-01T15:47:03.968Z,77
2023-01-01T15:48:17.643Z,77
2023-01-01T15:49:30.734Z,77
2023-01-01T15:50:37.880Z,77
2023-01-01T15:51:45.501Z,78
2023-01-01T15:52:55.788Z,77
2023-01-01T15:54:01.979Z,78
2023-01-01T15:55:10.381Z,78
2023-01-01T15:56:18.227Z,78
2023-01-01T15:57:25.746Z,78
2023-01-01T15:58:33.880Z,78
2023-01-01T15:59:47.776Z,78
2023-01-01T16:00:55.268Z,78
2023-01-01T16:02:03.158Z,78
2023-01-01T16:03:18.842Z,78
2023-01-01T16:04:28.917Z,78
2023-01-01T16:05:33.267Z,78
2023-01-01T16:06:41.286Z,79
2023-01-01T16:07:51.225Z,79
2023-01-01T16:09:03.977Z,79
2023-01-01T16:10:11.762Z,79
2023-01-01T16:11:19.580Z,79
2023-01-01T16:12:27.731Z,79
2023-01-01T16:13:35.893Z,79
2023-01-01T16:14:43.410Z,79
2023-01-01T16:15:52.518Z,79
2023-01-01T16:17:01.069Z,80
2023-01-01T16:18:07.319Z,79
2023-01-01T16:19:15.598Z,79
2023-01-01T16:20:25.334Z,80
2023-01-01T16:21:32.962Z,80
2023-01-01T16:22:40.892Z,79
2023-01-01T16:23:48.054Z,80
2023-01-01T16:24:55.360Z,80
2023-01-01T16:26:03.242Z,80
2023-01-01T16:27:11.484Z,80
2023-01-01T16:28:19.456Z,80
2023-01-01T16:29:26.908Z,80
2023-01-01T16:30:34.387Z,80
2023-01-01T16:31:41.464Z,80
2023-01-01T16:32:48.624Z,80
2023-01-01T16:33:56.726Z,80
2023-01-01T16:35:09.864Z,80
2023-01-01T16:36:11.497Z,80
2023-01-01T16:37:19.642Z,80
2023-01-01T16:38:27.681Z,80
2023-01-01T16:39:36.176Z,80
2023-01-01T16:40:44.218Z,79
2023-01-01T16:41:52.174Z,80
2023-01-01T16:43:00.959Z,80
2023-01-01T16:44:08.190Z,79
2023-01-01T16:45:16.753Z,80
2023-01-01T16:46:24.848Z,80
2023-01-01T16:47:32.907Z,80
2023-01-01T16:48:39.893Z,80
2023-01-01T16:49:47.464Z,80
2023-01-01T16:50:55.711Z,80
2023-01-01T16:52:03.760Z,80
2023-01-01T16:53:11.302Z,80
2023-01-01T16:54:18.423Z,80
2023-01-01T16:55:25.637Z,80
2023-01-01T16:56:32.575Z,80
2023-01-01T16:57:39.712Z,80
2023-01-01T16:58:49.925Z,80
2023-01-01T16:59:55.223Z,80
2023-01-01T17:01:02.776Z,81
2023-01-01T17:02:10.258Z,81
2023-01-01T17:03:18.676Z,81
2023-01-01T17:04:26.570Z,81
2023-01-01T17:05:37.645Z,81
2023-01-01T17:06:43.090Z,81
2023-01-01T17:07:50.732Z,81
2023-01-01T17:08:57.776Z,81
2023-01-01T17:10:05.125Z,81
2023-01-01T17:11:14.753Z,82
2023-01-01T17:12:21.955Z,82
2023-01-01T17:13:29.565Z,82
2023-01-01T17:14:36.458Z,82
2023-01-01T17:15:43.621Z,82
2023-01-01T17:16:50.669Z,82
2023-01-01T17:17:59.408Z,82
2023-01-01T17:19:15.362Z,81
2023-01-01T17:20:14.164Z,82
2023-01-01T17:21:22.297Z,82
2023-01-01T17:22:34.323Z,82
2023-01-01T17:23:38.720Z,82
2023-01-01T17:24:46.658Z,82
2023-01-01T17:25:53.861Z,82
2023-01-01T17:27:01.172Z,82
2023-01-01T17:28:08.145Z,82
2023-01-01T17:29:15.338Z,82
2023-01-01T17:30:25.136Z,82
2023-01-01T17:31:32.219Z,82
2023-01-01T17:32:39.318Z,82
2023-01-01T17:33:46.308Z,82
2023-01-01T17:34:55.366Z,82
2023-01-01T17:36:02.961Z,82
2023-01-01T17:37:10.622Z,83
2023-01-01T17:38:18.987Z,83
2023-01-01T17:39:26.126Z,82
2023-01-01T17:40:36.764Z,82
2023-01-01T17:41:41.560Z,83
2023-01-01T17:42:50.001Z,82
2023-01-01T17:43:57.676Z,83
2023-01-01T17:45:05.008Z,83
2023-01-01T17:46:12.638Z,83
2023-01-01T17:47:30.832Z,83
2023-01-01T17:48:32.819Z,84
2023-01-01T17:49:39.920Z,83
2023-01-01T17:50:47.213Z,83
2023-01-01T17:51:54.251Z,84
2023-01-01T17:53:01.340Z,83
2023-01-01T17:54:09.666Z,84
2023-01-01T17:55:16.638Z,84
2023-01-01T17:56:23.810Z,84
2023-01-01T17:57:31.013Z,84
2023-01-01T17:58:39.951Z,84
2023-01-01T17:59:47.458Z,84
2023-01-01T18:00:55.086Z,84
2023-01-01T18:02:09.922Z,84
2023-01-01T18:03:16.758Z,84
2023-01-01T18:04:24.670Z,84
2023-01-01T18:05:31.747Z,84
2023-01-01T18:06:41.842Z,84
2023-01-01T18:07:46.306Z,84
2023-01-01T18:08:53.515Z,84
2023-01-01T18:10:00.520Z,85
2023-01-01T18:11:07.683Z,85
2023-01-01T18:12:14.826Z,85
2023-01-01T18:13:22.909Z,85
2023-01-01T18:14:30.101Z,84
2023-01-01T18:15:38.059Z,85
2023-01-01T18:16:46.416Z,84
2023-01-01T18:17:54.870Z,84
2023-01-01T18:19:03.326Z,85
2023-01-01T18:20:10.341Z,84
2023-01-01T18:21:17.365Z,84
2023-01-01T18:22:27.173Z,84
2023-01-01T18:23:34.536Z,85
2023-01-01T18:24:41.459Z,84
2023-01-01T18:25:48.502Z,84
2023-01-01T18:26:56.533Z,84
2023-01-01T18:28:04.068Z,84
2023-01-01T18:29:11.270Z,84
2023-01-01T18:30:19.255Z,84
2023-01-01T18:31:27.515Z,84
2023-01-01T18:32:34.579Z,84
2023-01-01T18:33:42.517Z,84
2023-01-01T18:34:53.232Z,84
2023-01-01T18:36:00.557Z,84
2023-01-01T18:37:10.573Z,84
2023-01-01T18:38:17.773Z,83
2023-01-01T18:39:24.929Z,84
2023-01-01T18:40:32.232Z,84
2023-01-01T18:41:39.568Z,84
2023-01-01T18:42:52.089Z,84
2023-01-01T18:44:02.226Z,84
2023-01-01T18:45:09.520Z,84
2023-01-01T18:46:22.723Z,84
2023-01-01T18:47:29.504Z,84
2023-01-01T18:48:37.511Z,84
2023-01-01T18:49:45.614Z,84
2023-01-01T18:50:56.225Z,83
2023-01-01T18:52:03.756Z,83
2023-01-01T18:53:10.931Z,83
2023-01-01T18:54:19.749Z,83
2023-01-01T18:55:28.540Z,84
2023-01-01T18:56:35.892Z,83
2023-01-01T18:57:42.811Z,83
2023-01-01T18:58:50.119Z,84
2023-01-01T18:59:57.264Z,84
2023-01-01T19:01:14.984Z,83
2023-01-01T19:02:22.474Z,84
2023-01-01T19:03:41.152Z,84
2023-01-01T19:04:46.447Z,83
2023-01-01T19:05:53.629Z,83
2023-01-01T19:07:00.911Z,83
2023-01-01T19:08:07.970Z,83
2023-01-01T19:09:18.349Z,83
2023-01-01T19:10:28.796Z,83
2023-01-01T19:11:39.009Z,83
2023-01-01T19:12:46.876Z,83
2023-01-01T19:13:53.716Z,83
2023-01-01T19:15:03.450Z,83
2023-01-01T19:16:22.493Z,83
2023-01-01T19:17:33.007Z,83
2023-01-01T19:18:40.255Z,83
2023-01-01T19:19:49.379Z,84
2023-01-01T19:20:56.855Z,83
2023-01-01T19:22:14.236Z,84
2023-01-01T19:23:26.456Z,83
2023-01-01T19:24:34.604Z,84
2023-01-01T19:25:41.936Z,83
2023-01-01T19:26:50.150Z,83
2023-01-01T19:28:04.364Z,83
2023-01-01T19:29:22.894Z,83
2023-01-01T19:30:31.068Z,83
2023-01-01T19:31:38.739Z,82
2023-01-01T19:32:46.139Z,82
2023-01-01T19:33:53.512Z,82
2023-01-01T19:35:02.535Z,82
2023-01-01T19:36:10.308Z,82
2023-01-01T19:37:17.678Z,82
2023-01-01T19:38:25.159Z,82
2023-01-01T19:39:32.459Z,82
2023-01-01T19:40:39.775Z,82
2023-01-01T19:41:46.756Z,82
2023-01-01T19:42:53.928Z,82
2023-01-01T19:44:01.357Z,82
2023-01-01T19:45:09.221Z,82
2023-01-01T19:46:18.115Z,82
2023-01-01T19:47:25.113Z,82
2023-01-01T19:48:32.144Z,82
2023-01-01T19:49:39.092Z,82
2023-01-01T19:50:46.475Z,82
2023-01-01T19:51:54.945Z,83
2023-01-01T19:53:02.933Z,83
2023-01-01T19:54:10.307Z,83
2023-01-01T19:55:18.297Z,83
2023-01-01T19:56:25.534Z,83
2023-01-01T19:57:33.600Z,82
2023-01-01T19:58:41.108Z,82
2023-01-01T19:59:47.897Z,82
2023-01-01T20:00:57.198Z,82
2023-01-01T20:03:51.890Z,84
2023-01-01T20:04:21.584Z,84
2023-01-01T20:05:34.919Z,83
2023-01-01T20:06:38.201Z,83
2023-01-01T20:07:46.725Z,83
2023-01-01T20:08:54.508Z,84
2023-01-01T20:10:01.293Z,84
2023-01-01T20:11:10.823Z,84
2023-01-01T20:12:18.137Z,84
2023-01-01T20:13:26.120Z,85
2023-01-01T20:14:33.413Z,85
2023-01-01T20:15:46.420Z,84
2023-01-01T20:16:50.242Z,85
2023-01-01T20:17:58.256Z,85
2023-01-01T20:19:05.636Z,85
2023-01-01T20:20:12.758Z,85
2023-01-01T20:21:26.281Z,85
2023-01-01T20:22:36.436Z,85
2023-01-01T20:23:43.833Z,85
2023-01-01T20:24:50.917Z,85
2023-01-01T20:25:58.609Z,85
2023-01-01T20:27:06.617Z,85
2023-01-01T20:28:13.856Z,85
2023-01-01T20:29:26.264Z,85
2023-01-01T20:30:34.663Z,85
2023-01-01T20:31:41.946Z,85
2023-01-01T20:32:49.804Z,85
2023-01-01T20:33:57.583Z,85
2023-01-01T20:35:04.801Z,85
2023-01-01T20:36:11.935Z,85
2023-01-01T20:37:24.421Z,85
2023-01-01T20:38:40.311Z,85
2023-01-01T20:39:44.444Z,85
2023-01-01T20:40:52.565Z,85
2023-01-01T20:41:59.702Z,85
2023-01-01T20:43:06.861Z,85
2023-01-01T20:44:15.047Z,85
2023-01-01T20:45:22.289Z,85
2023-01-01T20:46:29.491Z,85
2023-01-01T20:47:37.828Z,85
2023-01-01T20:48:44.961Z,85
2023-01-01T20:49:53.133Z,85
2023-01-01T20:51:01.635Z,85
2023-01-01T20:52:08.974Z,85
2023-01-01T20:53:17.101Z,85
2023-01-01T20:54:24.288Z,85
2023-01-01T20:55:32.672Z,85
2023-01-01T20:56:40.188Z,85
2023-01-01T20:57:47.208Z,85
2023-01-01T20:58:59.203Z,85
2023-01-01T21:00:01.492Z,85
2023-01-01T21:01:09.666Z,85
2023-01-01T21:02:18.020Z,85
2023-01-01T21:03:25.886Z,85
2023-01-01T21:04:33.251Z,85
2023-01-01T21:05:43.256Z,85
2023-01-01T21:06:50.700Z,85
2023-01-01T21:07:58.277Z,85
2023-01-01T21:09:05.986Z,85
2023-01-01T21:10:12.857Z,85
2023-01-01T21:11:21.044Z,85
2023-01-01T21:12:28.484Z,85
2023-01-01T21:13:35.291Z,85
2023-01-01T21:14:43.066Z,85
2023-01-01T21:15:50.118Z,85
2023-01-01T21:16:57.267Z,85
2023-01-01T21:18:04.733Z,85
2023-01-01T21:19:12.097Z,85
2023-01-01T21:20:19.087Z,85
2023-01-01T21:21:26.352Z,85
2023-01-01T21:22:33.719Z,85
2023-01-01T21:23:40.778Z,85
2023-01-01T21:24:53.517Z,85
2023-01-01T21:25:55.120Z,85
2023-01-01T21:27:02.020Z,85
2023-01-01T21:28:10.198Z,85
2023-01-01T21:29:18.194Z,85
2023-01-01T21:30:25.475Z,85
2023-01-01T21:31:34.086Z,85
2023-01-01T21:32:41.309Z,85
2023-01-01T21:33:49.276Z,85
2023-01-01T21:34:56.998Z,85
2023-01-01T21:36:04.436Z,84
2023-01-01T21:37:22.983Z,85
2023-01-01T21:38:35.362Z,85
2023-01-01T21:39:42.519Z,85
2023-01-01T21:40:49.602Z,84
2023-01-01T21:41:59.938Z,84
2023-01-01T21:43:18.514Z,85
2023-01-01T21:44:37.090Z,85
2023-01-01T21:45:44.627Z,85
2023-01-01T21:46:54.341Z,85
2023-01-01T21:47:58.786Z,85
2023-01-01T21:49:11.118Z,84
2023-01-01T21:50:18.116Z,85
2023-01-01T21:51:26.451Z,85
2023-01-01T21:52:47.326Z,85
2023-01-01T21:53:49.715Z,85
2023-01-01T21:54:57.230Z,85
2023-01-01T21:56:04.767Z,85
2023-01-01T21:57:22.337Z,85
2023-01-01T21:58:30.251Z,85
2023-01-01T21:59:42.994Z,85
2023-01-01T22:00:50.667Z,85
2023-01-01T22:01:58.285Z,85
2023-01-01T22:03:08.298Z,85
2023-01-01T22:04:19.361Z,85
2023-01-01T22:05:30.051Z,85
2023-01-01T22:06:33.898Z,85
2023-01-01T22:07:57.313Z,85
2023-01-01T22:08:54.074Z,85
2023-01-01T22:10:01.694Z,86
2023-01-01T22:11:14.079Z,86
2023-01-01T22:12:27.294Z,85
2023-01-01T22:13:34.206Z,85
2023-01-01T22:14:41.391Z,86
2023-01-01T22:15:48.759Z,86
2023-01-01T22:16:57.188Z,85
2023-01-01T22:18:04.377Z,85
2023-01-01T22:19:19.502Z,86
2023-01-01T22:20:26.732Z,86
2023-01-01T22:21:34.215Z,86
2023-01-01T22:22:41.643Z,86
2023-01-01T22:23:48.719Z,85
2023-01-01T22:24:56.090Z,86
2023-01-01T22:26:04.968Z,86
2023-01-01T22:27:19.643Z,85
2023-01-01T22:28:30.830Z,86
2023-01-01T22:29:38.012Z,86
2023-01-01T22:30:48.990Z,86
2023-01-01T22:31:56.298Z,85
2023-01-01T22:33:03.511Z,86
2023-01-01T22:34:18.854Z,85
2023-01-01T22:35:26.403Z,86
2023-01-01T22:36:37.951Z,86
2023-01-01T22:37:47.215Z,85
2023-01-01T22:38:52.465Z,86
2023-01-01T22:40:01.922Z,86
2023-01-01T22:41:09.952Z,85
2023-01-01T22:42:17.254Z,85
2023-01-01T22:43:24.482Z,85
2023-01-01T22:44:35.920Z,85
2023-01-01T22:45:43.545Z,85
2023-01-01T22:46:51.211Z,85
2023-01-01T22:47:58.657Z,85
2023-01-01T22:49:05.918Z,85
2023-01-01T22:50:24.488Z,85
2023-01-01T22:51:32.524Z,86
2023-01-01T22:52:40.959Z,85
2023-01-01T22:53:48.185Z,85
2023-01-01T22:54:55.070Z,85
2023-01-01T22:56:03.002Z,85
2023-01-01T22:57:11.270Z,85
2023-01-01T22:58:20.272Z,85
2023-01-01T22:59:27.254Z,85
2023-01-01T23:00:34.369Z,85
2023-01-01T23:01:41.804Z,85
2023-01-01T23:02:48.597Z,85
2023-01-01T23:03:55.944Z,85
2023-01-01T23:05:02.819Z,85
2023-01-01T23:06:10.477Z,85
2023-01-01T23:07:17.784Z,85
2023-01-01T23:08:25.912Z,85
2023-01-01T23:09:33.373Z,85
2023-01-01T23:10:41.491Z,85
2023-01-01T23:11:48.722Z,85
2023-01-01T23:12:59.354Z,85
2023-01-01T23:14:07.781Z,85
2023-01-01T23:15:20.326Z,85
2023-01-01T23:16:33.113Z,85
2023-01-01T23:17:40.182Z,85
2023-01-01T23:18:47.703Z,85
2023-01-01T23:19:55.141Z,85
2023-01-01T23:21:03.009Z,85
2023-01-01T23:22:10.323Z,85
2023-01-01T23:23:17.806Z,85
2023-01-01T23:24:25.518Z,85
2023-01-01T23:25:32.997Z,86
2023-01-01T23:26:41.677Z,86
2023-01-01T23:27:49.083Z,85
2023-01-01T23:28:56.066Z,86
2023-01-01T23:30:05.163Z,86
2023-01-01T23:31:12.451Z,86
2023-01-01T23:32:19.621Z,86
2023-01-01T23:33:27.500Z,85
2023-01-01T23:34:35.098Z,86
2023-01-01T23:35:42.375Z,86
2023-01-01T23:36:49.493Z,85
2023-01-01T23:37:57.600Z,85
2023-01-01T23:39:04.953Z,85
2023-01-01T23:40:13.809Z,86
2023-01-01T23:41:21.987Z,85
2023-01-01T23:42:29.371Z,86
2023-01-01T23:43:41.144Z,86
2023-01-01T23:44:43.539Z,86
2023-01-01T23:45:51.099Z,86
2023-01-01T23:46:59.761Z,86
2023-01-01T23:48:07.151Z,86
2023-01-01T23:49:14.339Z,86
2023-01-01T23:50:21.440Z,86
2023-01-01T23:51:28.312Z,86
2023-01-01T23:52:35.681Z,86
2023-01-01T23:53:43.404Z,86
2023-01-01T23:54:50.859Z,86
2023-01-01T23:55:58.370Z,86
2023-01-01T23:57:07.163Z,86
2023-01-01T23:58:14.199Z,86
2023-01-01T23:59:21.296Z,86
